KBWP

Harry Stern Airport

Wahpeton, North Dakota, USA
METAR KBWP 162355Z AUTO 32004KT 10SM CLR M01/M06 A3023 RMK AO1
Observed Flight Rules
Dec-16 @ 23:55 UTC (28 minutes ago) Visual Flight Rules
Wind Visibility Clouds
320° at 4 knots 10 miles
  • Clear skies
Temperatures Readings
Current -1°C / 30°F
Dewpoint -6°C / 21°F
Humidity 69%
Altimeter 30.23" Hg
Pressure 1024 hPa
Elevation 295
METAR KBWP 162355Z AUTO 32004KT 10SM CLR M01/M06 A3023 RMK AO1
Observed Flight Rules
Dec-16 @ 23:55 UTC
(28 minutes ago)
VFR
Wind Visibility
320° at 4 knots 10 miles
Clouds
  • Clear skies
Temperature Dewpoint
-1°C / 30°F -6°C / 21°F
Humidity Altimeter Pressure
69% 30.23" Hg 1024 hPa